createdAt,value
2023-01-13T00:01:19.066Z,18.95
2023-01-13T00:03:46.058Z,19.55
2023-01-13T00:06:20.673Z,19.00
2023-01-13T00:08:52.186Z,17.50
2023-01-13T00:11:20.385Z,19.95
2023-01-13T00:13:47.236Z,17.35
2023-01-13T00:16:16.825Z,17.60
2023-01-13T00:18:44.629Z,18.38
2023-01-13T00:21:17.305Z,18.95
2023-01-13T00:23:44.963Z,18.42
2023-01-13T00:26:15.277Z,19.88
2023-01-13T00:28:42.295Z,16.98
2023-01-13T00:31:28.908Z,16.92
2023-01-13T00:34:00.459Z,17.67
2023-01-13T00:36:28.133Z,17.85
2023-01-13T00:38:55.105Z,20.25
2023-01-13T00:41:23.882Z,20.10
2023-01-13T00:43:51.084Z,19.75
2023-01-13T00:46:20.615Z,18.23
2023-01-13T00:48:48.320Z,17.08
2023-01-13T00:51:18.175Z,19.67
2023-01-13T00:53:47.308Z,18.40
2023-01-13T00:56:38.559Z,18.55
2023-01-13T00:59:06.366Z,17.08
2023-01-13T01:01:33.446Z,19.10
2023-01-13T01:04:00.426Z,19.77
2023-01-13T01:06:28.143Z,19.05
2023-01-13T01:08:56.321Z,20.10
2023-01-13T01:11:26.156Z,18.52
2023-01-13T01:13:55.257Z,18.52
2023-01-13T01:16:23.813Z,20.20
2023-01-13T01:18:53.183Z,18.52
2023-01-13T01:21:21.262Z,18.70
2023-01-13T01:23:48.167Z,18.40
2023-01-13T01:26:21.494Z,18.33
2023-01-13T01:28:49.014Z,18.02
2023-01-13T01:31:24.653Z,18.83
2023-01-13T01:33:52.182Z,17.95
2023-01-13T01:36:21.192Z,20.45
2023-01-13T01:38:49.285Z,19.92
2023-01-13T01:41:19.917Z,22.27
2023-01-13T01:44:00.546Z,17.90
2023-01-13T01:46:31.294Z,19.08
2023-01-13T01:49:07.902Z,19.10
2023-01-13T01:51:49.960Z,17.83
2023-01-13T01:54:24.389Z,18.23
2023-01-13T01:56:51.824Z,19.00
2023-01-13T01:59:18.837Z,18.63
2023-01-13T02:01:46.238Z,19.25
2023-01-13T02:04:18.751Z,20.10
2023-01-13T02:06:49.247Z,20.33
2023-01-13T02:09:17.245Z,20.48
2023-01-13T02:12:02.423Z,19.25
2023-01-13T02:14:30.479Z,20.23
2023-01-13T02:17:22.012Z,19.85
2023-01-13T02:20:25.618Z,20.58
2023-01-13T02:23:34.619Z,19.20
2023-01-13T02:26:07.281Z,20.67
2023-01-13T02:29:11.835Z,19.20
2023-01-13T02:31:42.855Z,20.15
2023-01-13T02:34:11.858Z,17.70
2023-01-13T02:37:23.114Z,18.35
2023-01-13T02:40:03.076Z,18.85
2023-01-13T02:42:53.235Z,18.30
2023-01-13T02:45:44.701Z,19.05
2023-01-13T02:48:14.100Z,18.05
2023-01-13T02:50:53.938Z,17.13
2023-01-13T02:53:28.460Z,18.80
2023-01-13T02:55:57.693Z,18.50
2023-01-13T02:58:28.149Z,19.60
2023-01-13T03:00:55.520Z,17.85
2023-01-13T03:03:22.485Z,17.75
2023-01-13T03:05:53.825Z,17.50
2023-01-13T03:08:23.425Z,16.75
2023-01-13T03:11:05.934Z,16.85
2023-01-13T03:13:51.039Z,17.48
2023-01-13T03:16:36.515Z,19.90
2023-01-13T03:19:35.416Z,17.50
2023-01-13T03:22:24.573Z,16.20
2023-01-13T03:25:16.131Z,16.23
2023-01-13T03:27:47.752Z,17.25
2023-01-13T03:30:27.584Z,18.85
2023-01-13T03:33:02.568Z,18.13
2023-01-13T03:35:33.957Z,19.45
2023-01-13T03:38:09.452Z,17.85
2023-01-13T03:41:01.179Z,15.85
2023-01-13T03:44:13.336Z,20.25
2023-01-13T03:46:57.368Z,19.27
2023-01-13T03:49:31.430Z,19.02
2023-01-13T03:52:04.525Z,18.63
2023-01-13T03:54:36.219Z,19.85
2023-01-13T03:57:07.857Z,25.02
2023-01-13T03:59:41.907Z,20.48
2023-01-13T04:02:41.301Z,21.98
2023-01-13T04:05:10.013Z,21.58
2023-01-13T04:08:14.930Z,21.48
2023-01-13T04:10:49.501Z,23.15
2023-01-13T04:13:21.131Z,22.60
2023-01-13T04:15:49.854Z,22.83
2023-01-13T04:18:22.324Z,24.88
2023-01-13T04:20:51.223Z,21.27
2023-01-13T04:23:19.332Z,23.33
2023-01-13T04:25:47.492Z,21.27
2023-01-13T04:28:15.542Z,21.35
2023-01-13T04:30:43.271Z,21.52
2023-01-13T04:33:10.748Z,21.92
2023-01-13T04:35:38.238Z,22.20
2023-01-13T04:38:08.813Z,21.05
2023-01-13T04:40:35.692Z,23.65
2023-01-13T04:43:02.941Z,22.17
2023-01-13T04:45:29.761Z,23.45
2023-01-13T04:47:56.534Z,24.25
2023-01-13T04:50:23.421Z,23.83
2023-01-13T04:52:51.801Z,22.85
2023-01-13T04:55:20.114Z,23.25
2023-01-13T04:57:46.968Z,22.75
2023-01-13T05:00:16.153Z,22.40
2023-01-13T05:02:43.040Z,21.98
2023-01-13T05:05:10.781Z,23.10
2023-01-13T05:07:37.672Z,20.73
2023-01-13T05:10:05.029Z,19.92
2023-01-13T05:12:50.542Z,19.13
2023-01-13T05:15:35.988Z,21.97
2023-01-13T05:18:03.272Z,22.20
2023-01-13T05:20:30.143Z,19.52
2023-01-13T05:23:15.392Z,18.30
2023-01-13T05:25:44.479Z,21.33
2023-01-13T05:28:11.857Z,21.35
2023-01-13T05:30:44.523Z,23.92
2023-01-13T05:33:12.939Z,21.90
2023-01-13T05:35:44.495Z,22.65
2023-01-13T05:38:12.504Z,18.50
2023-01-13T05:40:59.694Z,21.98
2023-01-13T05:43:27.118Z,21.42
2023-01-13T05:46:00.268Z,21.50
2023-01-13T05:48:30.565Z,21.15
2023-01-13T05:50:57.806Z,21.75
2023-01-13T05:53:25.103Z,23.88
2023-01-13T05:55:52.547Z,19.88
2023-01-13T05:58:21.034Z,22.60
2023-01-13T06:00:48.284Z,20.88
2023-01-13T06:03:16.172Z,22.45
2023-01-13T06:05:43.801Z,22.30
2023-01-13T06:08:10.661Z,21.40
2023-01-13T06:10:37.411Z,21.73
2023-01-13T06:13:05.215Z,22.85
2023-01-13T06:15:32.693Z,22.45
2023-01-13T06:18:02.839Z,22.05
2023-01-13T06:20:29.862Z,22.58
2023-01-13T06:22:56.923Z,22.55
2023-01-13T06:25:44.616Z,22.20
2023-01-13T06:28:11.508Z,24.20
2023-01-13T06:30:43.284Z,20.92
2023-01-13T06:33:14.856Z,22.38
2023-01-13T06:35:45.387Z,21.08
2023-01-13T06:38:16.281Z,21.60
2023-01-13T06:40:43.662Z,21.98
2023-01-13T06:43:17.346Z,20.95
2023-01-13T06:45:51.147Z,22.42
2023-01-13T06:48:20.147Z,20.27
2023-01-13T06:50:47.094Z,20.35
2023-01-13T06:53:13.974Z,18.63
2023-01-13T06:55:40.802Z,18.90
2023-01-13T06:58:07.937Z,21.17
2023-01-13T07:00:37.703Z,19.10
2023-01-13T07:03:14.375Z,23.33
2023-01-13T07:05:43.307Z,18.23
2023-01-13T07:08:11.049Z,20.35
2023-01-13T07:10:38.040Z,21.67
2023-01-13T07:13:24.157Z,23.45
2023-01-13T07:15:59.295Z,18.42
2023-01-13T07:18:28.448Z,17.20
2023-01-13T07:20:57.076Z,21.77
2023-01-13T07:23:24.890Z,21.60
2023-01-13T07:25:51.675Z,20.83
2023-01-13T07:28:18.474Z,23.00
2023-01-13T07:30:45.361Z,23.50
2023-01-13T07:33:12.178Z,25.45
2023-01-13T07:35:39.097Z,26.08
2023-01-13T07:38:06.049Z,24.92
2023-01-13T07:40:32.854Z,25.50
2023-01-13T07:43:18.054Z,24.77
2023-01-13T07:45:44.982Z,23.63
2023-01-13T07:48:11.809Z,23.55
2023-01-13T07:50:38.580Z,23.25
2023-01-13T07:53:05.639Z,24.10
2023-01-13T07:55:32.461Z,25.10
2023-01-13T07:57:59.263Z,23.15
2023-01-13T08:00:26.127Z,23.27
2023-01-13T08:02:52.934Z,26.80
2023-01-13T08:05:19.829Z,23.88
2023-01-13T08:07:46.598Z,24.92
2023-01-13T08:10:13.346Z,23.45
2023-01-13T08:12:58.913Z,23.30
2023-01-13T08:15:25.729Z,21.67
2023-01-13T08:17:52.516Z,25.48
2023-01-13T08:20:19.425Z,24.00
2023-01-13T08:22:46.276Z,22.30
2023-01-13T08:25:13.149Z,22.35
2023-01-13T08:27:40.240Z,23.95
2023-01-13T08:30:07.803Z,23.33
2023-01-13T08:32:34.542Z,24.17
2023-01-13T08:35:01.327Z,23.92
2023-01-13T08:37:28.082Z,24.85
2023-01-13T08:39:54.846Z,24.48
2023-01-13T08:42:21.623Z,25.00
2023-01-13T08:44:48.488Z,25.45
2023-01-13T08:47:15.329Z,24.58
2023-01-13T08:49:42.240Z,24.20
2023-01-13T08:52:09.102Z,25.23
2023-01-13T08:54:38.409Z,23.48
2023-01-13T08:57:05.538Z,24.27
2023-01-13T08:59:32.987Z,24.40
2023-01-13T09:01:59.943Z,25.33
2023-01-13T09:04:28.142Z,25.95
2023-01-13T09:06:55.934Z,26.48
2023-01-13T09:09:23.903Z,27.15
2023-01-13T09:12:10.401Z,23.00
2023-01-13T09:17:04.905Z,24.63
2023-01-13T09:19:31.852Z,25.42
2023-01-13T09:21:58.757Z,26.80
2023-01-13T09:24:25.974Z,25.05
2023-01-13T09:26:52.761Z,25.63
2023-01-13T09:29:19.811Z,25.63
2023-01-13T09:31:47.151Z,27.60
2023-01-13T09:34:36.442Z,24.13
2023-01-13T09:37:04.736Z,25.52
2023-01-13T09:39:33.469Z,28.55
2023-01-13T09:42:42.348Z,26.45
2023-01-13T09:45:15.871Z,25.30
2023-01-13T09:47:48.500Z,26.95
2023-01-13T09:50:15.225Z,26.02
2023-01-13T09:52:45.195Z,25.80
2023-01-13T09:55:16.611Z,27.42
2023-01-13T09:57:43.474Z,26.65
2023-01-13T10:00:40.157Z,26.85
2023-01-13T10:03:19.431Z,26.27
2023-01-13T10:06:19.866Z,27.50
2023-01-13T10:08:49.022Z,26.23
2023-01-13T10:11:37.677Z,24.23
2023-01-13T10:14:18.140Z,23.23
2023-01-13T10:16:48.499Z,24.00
2023-01-13T10:19:33.025Z,22.00
2023-01-13T10:22:20.895Z,23.80
2023-01-13T10:25:20.475Z,20.85
2023-01-13T10:27:50.664Z,21.95
2023-01-13T10:30:31.308Z,24.00
2023-01-13T10:33:09.449Z,24.58
2023-01-13T10:35:49.198Z,23.52
2023-01-13T10:38:27.337Z,24.38
2023-01-13T10:40:59.908Z,23.83
2023-01-13T10:43:28.181Z,25.05
2023-01-13T10:46:03.824Z,23.60
2023-01-13T10:48:41.251Z,24.48
2023-01-13T10:51:13.912Z,24.05
2023-01-13T10:54:01.373Z,24.00
2023-01-13T10:56:33.899Z,21.35
2023-01-13T10:59:23.929Z,23.73
2023-01-13T11:01:59.738Z,23.83
2023-01-13T11:04:37.511Z,21.73
2023-01-13T11:07:19.028Z,21.80
2023-01-13T11:09:45.933Z,21.88
2023-01-13T11:12:53.746Z,25.33
2023-01-13T11:15:25.392Z,26.25
2023-01-13T11:18:01.633Z,24.27
2023-01-13T11:20:34.300Z,23.30
2023-01-13T11:23:11.204Z,23.60
2023-01-13T11:25:43.029Z,23.50
2023-01-13T11:28:34.219Z,21.30
2023-01-13T11:31:24.534Z,22.20
2023-01-13T11:34:18.708Z,23.05
2023-01-13T11:36:52.047Z,22.00
2023-01-13T11:39:25.832Z,20.55
2023-01-13T11:42:39.807Z,19.55
2023-01-13T11:45:41.383Z,20.55
2023-01-13T11:48:15.606Z,24.27
2023-01-13T11:50:51.261Z,21.35
2023-01-13T11:53:39.061Z,21.77
2023-01-13T11:56:25.026Z,22.10
2023-01-13T11:59:17.337Z,21.77
2023-01-13T12:02:08.648Z,20.45
2023-01-13T12:04:38.250Z,21.13
2023-01-13T12:07:41.272Z,19.35
2023-01-13T12:10:33.774Z,19.85
2023-01-13T12:13:11.360Z,19.80
2023-01-13T12:15:59.398Z,21.95
2023-01-13T12:19:00.010Z,20.70
2023-01-13T12:21:33.907Z,23.65
2023-01-13T12:24:18.908Z,23.30
2023-01-13T12:26:52.371Z,22.48
2023-01-13T12:29:20.371Z,21.40
2023-01-13T12:31:49.340Z,17.88
2023-01-13T12:34:45.285Z,22.77
2023-01-13T12:37:48.038Z,23.80
2023-01-13T12:40:34.194Z,24.13
2023-01-13T12:43:25.739Z,21.55
2023-01-13T12:45:52.580Z,22.65
2023-01-13T12:48:59.562Z,22.17
2023-01-13T12:51:36.651Z,20.60
2023-01-13T12:54:31.535Z,21.05
2023-01-13T12:56:59.450Z,19.13
2023-01-13T12:59:26.166Z,18.70
2023-01-13T13:02:11.567Z,19.88
2023-01-13T13:05:18.912Z,20.40
2023-01-13T13:07:49.790Z,18.70
2023-01-13T13:10:37.845Z,18.23
2023-01-13T13:13:21.176Z,19.25
2023-01-13T13:15:52.254Z,18.95
2023-01-13T13:18:21.905Z,17.52
2023-01-13T13:21:04.659Z,18.52
2023-01-13T13:24:03.960Z,20.63
2023-01-13T13:26:40.328Z,21.63
2023-01-13T13:29:26.436Z,20.98
2023-01-13T13:32:26.291Z,20.65
2023-01-13T13:35:04.559Z,21.00
2023-01-13T13:38:28.101Z,22.55
2023-01-13T13:41:13.513Z,23.58
2023-01-13T13:44:02.135Z,22.33
2023-01-13T13:46:47.764Z,21.92
2023-01-13T13:49:20.329Z,21.42
2023-01-13T13:51:58.780Z,22.15
2023-01-13T13:54:25.769Z,22.77
2023-01-13T13:56:52.791Z,22.25
2023-01-13T13:59:30.733Z,22.45
2023-01-13T14:02:03.973Z,24.75
2023-01-13T14:04:36.299Z,23.95
2023-01-13T14:07:21.087Z,22.77
2023-01-13T14:09:54.412Z,24.33
2023-01-13T14:12:24.208Z,24.95
2023-01-13T14:14:51.464Z,23.13
2023-01-13T14:17:27.731Z,22.48
2023-01-13T14:20:02.719Z,21.63
2023-01-13T14:22:29.725Z,22.63
2023-01-13T14:24:58.001Z,22.30
2023-01-13T14:27:27.758Z,22.35
2023-01-13T14:29:58.221Z,22.65
2023-01-13T14:32:36.522Z,22.20
2023-01-13T14:35:07.205Z,23.35
2023-01-13T14:37:41.866Z,22.17
2023-01-13T14:40:35.818Z,24.73
2023-01-13T14:43:10.348Z,22.92
2023-01-13T14:45:37.239Z,22.30
2023-01-13T14:48:08.751Z,23.13
2023-01-13T14:50:36.645Z,18.63
2023-01-13T14:53:05.010Z,21.75
2023-01-13T14:55:34.415Z,21.85
2023-01-13T14:58:26.401Z,21.55
2023-01-13T15:01:26.630Z,21.27
2023-01-13T15:03:53.609Z,23.60
2023-01-13T15:06:25.857Z,23.55
2023-01-13T15:08:52.936Z,21.67
2023-01-13T15:11:27.290Z,19.77
2023-01-13T15:14:01.460Z,24.98
2023-01-13T15:16:29.998Z,25.17
2023-01-13T15:18:57.874Z,22.83
2023-01-13T15:21:25.375Z,24.85
2023-01-13T15:23:52.275Z,25.77
2023-01-13T15:26:37.457Z,27.40
2023-01-13T15:29:05.439Z,22.67
2023-01-13T15:31:32.732Z,21.85
2023-01-13T15:34:00.793Z,22.42
2023-01-13T15:36:33.801Z,22.80
2023-01-13T15:39:01.958Z,22.17
2023-01-13T15:41:47.603Z,22.02
2023-01-13T15:44:36.478Z,20.65
2023-01-13T15:47:07.381Z,20.95
2023-01-13T15:49:45.350Z,22.73
2023-01-13T15:52:21.689Z,23.70
2023-01-13T15:54:52.638Z,22.20
2023-01-13T15:57:42.403Z,22.35
2023-01-13T16:00:17.734Z,23.00
2023-01-13T16:02:44.590Z,20.35
2023-01-13T16:05:11.860Z,22.02
2023-01-13T16:07:39.379Z,19.42
2023-01-13T16:10:14.807Z,21.17
2023-01-13T16:12:41.676Z,19.77
2023-01-13T16:15:10.105Z,22.30
2023-01-13T16:17:36.904Z,22.83
2023-01-13T16:20:03.994Z,19.08
2023-01-13T16:22:30.831Z,23.23
2023-01-13T16:24:57.624Z,20.98
2023-01-13T16:27:25.619Z,24.77
2023-01-13T16:29:52.703Z,19.55
2023-01-13T16:32:22.415Z,22.83
2023-01-13T16:34:49.709Z,23.35
2023-01-13T16:37:22.649Z,22.17
2023-01-13T16:39:50.511Z,24.65
2023-01-13T16:42:17.476Z,23.70
2023-01-13T16:44:44.270Z,21.92
2023-01-13T16:47:17.968Z,23.67
2023-01-13T16:49:45.586Z,26.10
2023-01-13T16:52:12.475Z,22.90
2023-01-13T16:54:39.278Z,24.38
2023-01-13T16:57:07.763Z,22.02
2023-01-13T16:59:34.617Z,25.10
2023-01-13T17:02:02.215Z,22.70
2023-01-13T17:04:29.268Z,24.27
2023-01-13T17:07:15.663Z,22.15
2023-01-13T17:12:10.305Z,22.52
2023-01-13T17:14:37.133Z,22.23
2023-01-13T17:17:03.936Z,24.38
2023-01-13T17:19:30.692Z,22.02
2023-01-13T17:21:58.110Z,23.60
2023-01-13T17:24:25.956Z,22.50
2023-01-13T17:26:52.802Z,22.40
2023-01-13T17:29:22.628Z,23.05
2023-01-13T17:31:50.721Z,23.77
2023-01-13T17:34:21.112Z,23.65
2023-01-13T17:36:48.403Z,25.02
2023-01-13T17:39:17.718Z,21.55
2023-01-13T17:41:45.214Z,24.70
2023-01-13T17:44:14.670Z,23.38
2023-01-13T17:46:42.420Z,25.88
2023-01-13T17:49:16.895Z,25.17
2023-01-13T17:51:44.938Z,23.25
2023-01-13T17:54:12.430Z,25.67
2023-01-13T17:56:40.653Z,24.88
2023-01-13T17:59:10.077Z,24.80
2023-01-13T18:01:37.601Z,24.73
2023-01-13T18:04:04.884Z,25.77
2023-01-13T18:06:32.543Z,26.50
2023-01-13T18:09:00.155Z,26.33
2023-01-13T18:11:27.568Z,23.83
2023-01-13T18:13:57.015Z,25.73
2023-01-13T18:16:25.754Z,26.85
2023-01-13T18:19:15.740Z,25.48
2023-01-13T18:22:01.284Z,24.42
2023-01-13T18:24:46.688Z,26.00
2023-01-13T18:27:24.608Z,26.05
2023-01-13T18:29:58.642Z,24.45
2023-01-13T18:32:31.936Z,25.08
2023-01-13T18:35:06.510Z,26.83
2023-01-13T18:37:38.868Z,25.38
2023-01-13T18:40:07.892Z,25.55
2023-01-13T18:42:54.271Z,25.48
2023-01-13T18:47:54.254Z,24.50
2023-01-13T18:50:22.386Z,24.00
2023-01-13T18:52:49.312Z,23.95
2023-01-13T18:55:16.235Z,24.80
2023-01-13T18:57:42.989Z,23.92
2023-01-13T19:00:14.486Z,25.05
2023-01-13T19:02:41.441Z,24.92
2023-01-13T19:05:09.501Z,25.58
2023-01-13T19:07:36.759Z,25.08
2023-01-13T19:10:06.638Z,24.25
2023-01-13T19:12:33.780Z,27.55
2023-01-13T19:15:01.757Z,24.52
2023-01-13T19:17:32.912Z,25.58
2023-01-13T19:20:00.037Z,23.73
2023-01-13T19:22:32.756Z,23.67
2023-01-13T19:25:01.360Z,23.55
2023-01-13T19:27:28.735Z,23.52
2023-01-13T19:30:00.661Z,23.75
2023-01-13T19:32:28.107Z,24.83
2023-01-13T19:34:59.333Z,23.85
2023-01-13T19:37:30.551Z,24.10
2023-01-13T19:39:58.998Z,21.90
2023-01-13T19:42:44.256Z,22.73
2023-01-13T19:45:27.700Z,20.13
2023-01-13T19:47:59.181Z,23.83
2023-01-13T19:50:26.234Z,20.35
2023-01-13T19:52:53.174Z,20.33
2023-01-13T19:55:20.188Z,21.75
2023-01-13T19:57:47.317Z,21.50
2023-01-13T20:00:18.321Z,22.42
2023-01-13T20:02:49.207Z,23.55
2023-01-13T20:05:22.427Z,22.55
2023-01-13T20:07:50.912Z,22.58
2023-01-13T20:10:19.739Z,21.80
2023-01-13T20:12:46.592Z,22.95
2023-01-13T20:15:13.768Z,23.90
2023-01-13T20:17:41.663Z,21.83
2023-01-13T20:20:10.703Z,23.80
2023-01-13T20:22:39.477Z,23.20
2023-01-13T20:25:06.722Z,21.50
2023-01-13T20:27:33.687Z,21.25
2023-01-13T20:30:00.740Z,23.40
2023-01-13T20:32:27.563Z,21.20
2023-01-13T20:34:54.416Z,22.52
2023-01-13T20:37:21.263Z,22.35
2023-01-13T20:39:48.244Z,22.13
2023-01-13T20:42:30.123Z,22.83
2023-01-13T20:44:58.157Z,22.05
2023-01-13T20:47:26.071Z,19.38
2023-01-13T20:49:53.507Z,23.73
2023-01-13T20:52:20.592Z,22.10
2023-01-13T20:54:47.582Z,23.38
2023-01-13T20:57:16.892Z,24.25
2023-01-13T20:59:43.778Z,23.50
2023-01-13T21:02:15.840Z,23.00
2023-01-13T21:04:43.297Z,23.33
2023-01-13T21:07:10.710Z,22.25
2023-01-13T21:09:37.703Z,24.02
2023-01-13T21:12:24.539Z,23.15
2023-01-13T21:15:09.899Z,20.90
2023-01-13T21:17:55.460Z,21.45
2023-01-13T21:20:22.302Z,23.13
2023-01-13T21:22:49.572Z,20.42
2023-01-13T21:25:17.809Z,23.05
2023-01-13T21:27:44.759Z,23.23
2023-01-13T21:30:15.436Z,22.67
2023-01-13T21:32:44.100Z,23.20
2023-01-13T21:35:12.203Z,23.08
2023-01-13T21:37:40.869Z,22.73
2023-01-13T21:40:10.164Z,23.98
2023-01-13T21:42:55.486Z,21.38
2023-01-13T21:45:41.067Z,23.95
2023-01-13T21:48:07.933Z,18.98
2023-01-13T21:50:35.881Z,21.65
2023-01-13T21:53:02.683Z,22.40
2023-01-13T21:55:29.756Z,23.73
2023-01-13T21:58:06.862Z,23.60
2023-01-13T22:00:34.193Z,22.17
2023-01-13T22:03:03.232Z,23.42
2023-01-13T22:05:30.052Z,22.30
2023-01-13T22:07:57.080Z,22.90
2023-01-13T22:10:26.735Z,24.75
2023-01-13T22:12:58.990Z,23.23
2023-01-13T22:15:28.233Z,22.65
2023-01-13T22:17:55.736Z,24.05
2023-01-13T22:20:22.806Z,25.65
2023-01-13T22:22:50.039Z,23.55
2023-01-13T22:25:17.393Z,25.80
2023-01-13T22:27:45.012Z,24.90
2023-01-13T22:30:18.317Z,24.67
2023-01-13T22:32:46.247Z,23.55
2023-01-13T22:35:15.074Z,23.17
2023-01-13T22:37:42.816Z,21.73
2023-01-13T22:40:11.538Z,24.58
2023-01-13T22:42:40.079Z,23.98
2023-01-13T22:45:14.377Z,24.58
2023-01-13T22:47:41.433Z,24.00
2023-01-13T22:50:09.331Z,22.98
2023-01-13T22:52:36.433Z,23.10
2023-01-13T22:55:03.712Z,24.05
2023-01-13T22:57:36.171Z,25.25
2023-01-13T23:00:10.442Z,23.10
2023-01-13T23:02:38.467Z,25.88
2023-01-13T23:05:05.633Z,24.83
2023-01-13T23:07:32.423Z,23.23
2023-01-13T23:09:59.237Z,23.83
2023-01-13T23:12:26.016Z,24.10
2023-01-13T23:14:52.848Z,23.75
2023-01-13T23:17:19.643Z,23.90
2023-01-13T23:19:46.566Z,22.35
2023-01-13T23:22:13.594Z,23.10
2023-01-13T23:24:40.374Z,21.98
2023-01-13T23:27:07.388Z,22.55
2023-01-13T23:29:34.145Z,22.75
2023-01-13T23:32:00.960Z,25.05
2023-01-13T23:34:27.872Z,22.85
2023-01-13T23:36:54.660Z,23.17
2023-01-13T23:39:21.451Z,21.92
2023-01-13T23:41:48.216Z,24.35
2023-01-13T23:44:15.003Z,23.30
2023-01-13T23:46:41.821Z,23.85
2023-01-13T23:49:08.544Z,24.40
2023-01-13T23:51:35.502Z,23.85
2023-01-13T23:54:02.423Z,22.75
2023-01-13T23:56:31.006Z,23.13
2023-01-13T23:58:57.885Z,22.30
